Nearby METAR Reports

 

EKAH - Tirstrup (civ/Mi, Denmark
Distance from station: SSW 25km
Updated: 25/02/2020 11:50
Light rain, Showers, Overcast
Light rain, Showers, Overcast
 Wind from SSW
Wind: SSW 13 km/h, Gust: 31 km/h
Temperature: 5°C
Wind Chill: 2°C
Dew Point: 3°C
Humidity: 87%
Barometer: 981 hPa
Summary: Light rain, Showers
Clouds: Overcast
Visibility: 10 km
Cloud details: Overcast 671 m
2020/02/25 10:50 EKAH 251050Z AUTO 20007G17KT 130V240 9999NDV -SHRA OVC022/// 05/03 Q0981
EKYT - Alborg, Denmark
Distance from station: NW 91km
Updated: 25/02/2020 11:50
Mostly cloudy
Mostly cloudy
 Wind from SSE
Wind: SSE 22 km/h
Temperature: 5°C
Wind Chill: 1°C
Dew Point: 4°C
Humidity: 93%
Barometer: 979 hPa
Clouds: Mostly cloudy
Visibility: 10 km
Cloud details: Few Clouds 366 m
Partly cloudy 518 m
Mostly cloudy 792 m
Mostly cloudy 1829 m
2020/02/25 10:50 EKYT 251050Z AUTO 16012KT 9999 FEW012/// SCT017/// BKN026/// BKN060/// 05/04 Q0979
EKKA - Karup (dan-Afb), Denmark
Distance from station: W 107km
Updated: 25/02/2020 12:13
Light drizzle, Mist, Mostly cloudy
Light drizzle, Mist, Mostly cloudy
 Wind from S
Wind: S 20 km/h
Temperature: 5°C
Wind Chill: 1°C
Dew Point: 3°C
Humidity: 87%
Barometer: 976 hPa
Summary: Light drizzle, Mist
Clouds: Mostly cloudy
Visibility: 4 km
Cloud details: Partly cloudy 305 m
Mostly cloudy 366 m
2020/02/25 11:13 EKKA 251113Z 19011KT 170V230 3500 -DZ BR SCT010 BKN012 05/03 Q0976 TEMPO 23015G28KT 2500 RADZ BKN008
 
EKOD - Odense/Beldringe, Denmark
Distance from station: SSW 116km
Updated: 25/02/2020 11:50
Mostly cloudy
Mostly cloudy
 Wind from SW
Wind: SW 48 km/h, Gust: 78 km/h
Temperature: 6°C
Wind Chill: 1°C
Dew Point: 4°C
Humidity: 87%
Barometer: 983 hPa
Clouds: Mostly cloudy
Visibility: 10 km
Cloud details: Few Clouds 671 m
Mostly cloudy 914 m
2020/02/25 10:50 EKOD 251050Z 22026G42KT 9999 FEW022 BKN030 06/04 Q0983
EKBI - Billund Airport, Denmark
Distance from station: SW 134km
Updated: 25/02/2020 11:50
Light rain, Showers, Mostly cloudy
Light rain, Showers, Mostly cloudy
 Wind from SW
Wind: SW 43 km/h, Gust: 69 km/h
Temperature: 4°C
Wind Chill: -2°C
Dew Point: 3°C
Humidity: 93%
Barometer: 979 hPa
Summary: Light rain, Showers
Clouds: Mostly cloudy
Visibility: 6 km
Cloud details: Mostly cloudy 549 m
Mostly cloudy 671 m
2020/02/25 10:50 EKBI 251050Z 22023G37KT 190V250 6000 -SHRA BKN018 BKN022CB 04/03 Q0979
EKCH - Copenhagen/Kastr, Denmark
Distance from station: SE 148km
Updated: 25/02/2020 11:50
Mostly cloudy
Mostly cloudy
 Wind from SW
Wind: SW 33 km/h
Temperature: 6°C
Wind Chill: 1°C
Dew Point: 3°C
Humidity: 81%
Barometer: 987 hPa
Clouds: Mostly cloudy
Visibility: 10 km
Cloud details: Mostly cloudy 1372 m
2020/02/25 10:50 EKCH 251050Z AUTO 22018KT 9999 BKN045/// 06/03 Q0987 TEMPO 23018G28KT